• Join FlightAware (Why Join?)
  • Login
  • US Flag 
03:45AM EDT


 

Airport Tracker/Info


-or-


 

Live Flight TrackerFlight Track Log ✈ FSR511 ✈ 06-Feb-2014 ✈ KCMI - KSLC

Flight Track Log - Related Links

Times and Time Zones

All times are in EST time to prevent confusion due to time zone crossing. See the FSR511 flight status page for this flight to view local times or setup timezone preferences in your user account.

Time Position Orientation Groundspeed Altitude Reporting Facility
EST Latitude Longitude Course Direction KTS MPH feet Rate Location/Type
03:31PM 40.0611 -88.3589 282° West 201 231 4,200  Level Chicago Center
03:32PM 40.0756 -88.4350 284° West 217 250 7,100 2,940 Climbing Chicago Center
03:33PM 40.0892 -88.5208 282° West 235 270 10,300 3,240 Climbing Chicago Center
03:34PM 40.1050 -88.6136 283° West 253 291 13,800 3,720 Climbing Chicago Center
03:35PM 40.1264 -88.7436 282° West 298 343 18,100 3,660 Climbing Chicago Center
03:36PM 40.1635 -89.0704 282° West  Level FlightAware Approximate
03:36PM 40.1444 -88.8589 282° West 318 366 21,400  Level Chicago Center
03:37PM 40.1650 -88.9772 283° West 328 377 23,600 2,460 Climbing Chicago Center
03:38PM 40.1847 -89.1033 282° West 346 398 26,600 2,880 Climbing Chicago Center
03:39PM 40.2050 -89.2256 282° West 346 398 29,600 2,760 Climbing Chicago Center
03:40PM 40.2222 -89.3414 281° West 331 381 32,300 2,160 Climbing Chicago Center
03:41PM 40.2397 -89.4533 282° West 319 367 34,100 1,320 Climbing Chicago Center
03:42PM 40.2586 -89.5689 282° West 321 369 35,100 1,020 Climbing Chicago Center
03:43PM 40.2811 -89.7147 281° West 334 384 36,300 1,080 Climbing Chicago Center
03:44PM 40.2997 -89.8400 281° West 346 398 37,400 1,020 Climbing Chicago Center
03:45PM 40.3189 -89.9642 281° West 347 399 38,400 960 Climbing Chicago Center
03:46PM 40.3378 -90.0872 281° West 344 396 39,400 720 Climbing Chicago Center
03:47PM 40.3556 -90.2086 281° West 338 389 39,900 480 Climbing Chicago Center
03:47PM 40.3592 -90.2333 281° West 339 390 40,000 60 Climbing Chicago Center
03:48PM 40.3772 -90.3639 280° West 354 407 40,000  Level Chicago Center
03:50PM 40.3981 -90.4972 282° West 369 425 40,000  Level Chicago Center
03:51PM 40.4175 -90.6294 281° West 368 423 40,000  Level Chicago Center
03:52PM 40.4372 -90.7619 281° West 370 426 40,000  Level Chicago Center
03:53PM 40.4592 -90.9200 280° West 367 422 40,000  Level Chicago Center
03:54PM 40.4783 -91.0514 281° West 366 421 40,000  Level Chicago Center
03:55PM 40.4956 -91.1833 280° West 367 422 40,000  Level Chicago Center
03:56PM 40.5136 -91.3061 281° West 364 419 40,000  Level Chicago Center
03:57PM 40.5353 -91.4625 280° West 364 419 40,000  Level Chicago Center
03:58PM 40.5542 -91.5933 281° West 366 421 40,000  Level Chicago Center
03:59PM 40.5700 -91.7228 279° West 362 417 40,000  Level Chicago Center
04:00PM 40.5867 -91.8525 280° West 363 418 40,000  Level Chicago Center
04:01PM 40.6044 -91.9844 280° West 366 421 40,000  Level Chicago Center
04:02PM 40.6244 -92.1178 281° West 372 428 40,000  Level Chicago Center
04:03PM 40.6450 -92.2756 280° West 371 427 40,000  Level Chicago Center
04:04PM 40.6619 -92.4078 280° West 371 427 40,000  Level Chicago Center
04:05PM 40.6786 -92.5408 279° West 373 429 40,000  Level Chicago Center
04:06PM 40.6964 -92.6742 280° West 373 429 40,000  Level Chicago Center
04:07PM 40.7164 -92.8361 279° West 379 436 40,000  Level Chicago Center
04:08PM 40.7331 -92.9717 279° West 379 436 40,000  Level Chicago Center
04:09PM 40.7500 -93.1081 279° West 380 437 40,000  Level Chicago Center
04:10PM 40.7694 -93.2431 281° West 379 436 40,000  Level Chicago Center
04:11PM 40.8275 -93.3647 302° West 397 457 40,000  Level Chicago Center
04:12PM 40.8889 -93.4864 304° West 398 458 40,000  Level Chicago Center
04:13PM 40.9608 -93.6325 303° West 398 458 40,000  Level Chicago Center
04:14PM 41.0225 -93.7542 304° West 398 458 40,000  Level Chicago Center
04:15PM 41.0808 -93.8769 302° West 397 457 40,000  Level Chicago Center
04:16PM 41.1422 -93.9981 304° West 396 456 40,000  Level Chicago Center
04:17PM 41.1778 -94.1319 289° West 381 438 40,000  Level Chicago Center
04:18PM 41.1917 -94.3011 276° West 384 442 40,000  Level Chicago Center
04:20PM 41.2058 -94.4503 277° West 388 447 40,000  Level Minneapolis Center
04:21PM 41.2186 -94.5928 277° West 388 447 40,000  Level Minneapolis Center
04:22PM 41.2344 -94.7644 277° West 390 449 40,000  Level Minneapolis Center
04:23PM 41.2461 -94.9075 276° West 390 449 40,000  Level Minneapolis Center
04:24PM 41.2586 -95.0508 277° West 390 449 40,000  Level Minneapolis Center
04:25PM 41.2703 -95.1933 276° West 390 449 40,000  Level Minneapolis Center
04:26PM 41.2811 -95.3364 276° West 389 448 40,000  Level Minneapolis Center
04:27PM 41.2931 -95.4789 276° West 388 447 40,000  Level Minneapolis Center
04:28PM 41.3064 -95.6456 276° West 387 445 40,000  Level Minneapolis Center
04:29PM 41.3181 -95.7858 276° West 383 441 40,000  Level Minneapolis Center
04:30PM 41.3294 -95.9281 276° West 385 443 40,000  Level Minneapolis Center
04:31PM 41.3397 -96.0706 276° West 386 444 40,000  Level Minneapolis Center
04:32PM 41.3503 -96.2133 276° West 387 445 40,000  Level Minneapolis Center
04:33PM 41.3628 -96.3708 276° West 383 441 40,000  Level Minneapolis Center
04:34PM 41.3728 -96.5136 275° West 386 444 40,000  Level Minneapolis Center
04:35PM 41.3825 -96.6572 275° West 389 448 40,000  Level Minneapolis Center
04:36PM 41.3922 -96.7981 275° West 386 444 40,000  Level Minneapolis Center
04:37PM 41.4008 -96.9406 275° West 385 443 40,000  Level Minneapolis Center
04:38PM 41.4117 -97.0814 276° West 383 441 40,000  Level Minneapolis Center
04:39PM 41.4228 -97.2517 275° West 384 442 40,000  Level Minneapolis Center
04:40PM 41.4322 -97.3925 275° West 383 441 40,000  Level Minneapolis Center
04:41PM 41.4411 -97.5333 275° West 382 440 40,000  Level Minneapolis Center
04:42PM 41.4494 -97.6747 275° West 381 438 40,000  Level Minneapolis Center
04:43PM 41.4586 -97.8133 275° West 379 436 40,000  Level Minneapolis Center
04:44PM 41.4672 -97.9544 275° West 381 438 40,000  Level Minneapolis Center
04:45PM 41.4747 -98.0956 274° West 381 438 40,000  Level Minneapolis Center
04:46PM 41.4836 -98.2475 275° West 380 437 40,000  Level Minneapolis Center
04:47PM 41.4914 -98.3878 274° West 380 437 40,000  Level Minneapolis Center
04:48PM 41.5003 -98.5439 274° West 379 436 40,000  Level Minneapolis Center
04:50PM 41.5083 -98.6850 274° West 380 437 40,000  Level Minneapolis Center
04:51PM 41.5147 -98.8261 274° West 381 438 40,000  Level Minneapolis Center
04:52PM 41.5231 -98.9686 275° West 382 440 40,000  Level Minneapolis Center
04:53PM 41.5300 -99.1389 273° West 384 442 40,000  Level Minneapolis Center
04:54PM 41.5383 -99.2864 274° West 383 441 40,000  Level Minneapolis Center
04:55PM 41.5450 -99.4269 274° West 382 440 40,000  Level Minneapolis Center
04:56PM 41.5514 -99.5697 273° West 384 442 40,000  Level Minneapolis Center
04:57PM 41.5575 -99.7117 273° West 384 442 40,000  Level Minneapolis Center
04:58PM 41.5644 -99.8533 274° West 384 442 40,000  Level Minneapolis Center
04:59PM 41.5708 -99.9947 274° West 383 441 40,000  Level Minneapolis Center
05:00PM 41.5772 -100.1644 273° West 382 440 40,000  Level Minneapolis Center
05:01PM 41.5831 -100.3058 273° West 382 440 40,000  Level Minneapolis Center
05:02PM 41.5886 -100.4686 273° West 380 437 40,000  Level Denver Center
05:03PM 41.5931 -100.6253 272° West 379 436 40,000 240 Level Denver Center
05:04PM 41.5986 -100.7586 273° West 377 434 40,500 540 Climbing Denver Center
05:05PM 41.6044 -100.9128 273° West 375 432 41,200 480 Climbing Denver Center
05:06PM 41.6081 -101.0461 272° West 375 432 41,600 420 Climbing Denver Center
05:07PM 41.6136 -101.2017 273° West 376 433 42,100 300 Climbing Denver Center
05:08PM 41.6169 -101.3375 272° West 382 440 42,300 240 Climbing Denver Center
05:09PM 41.6214 -101.4978 272° West 388 447 42,700 300 Climbing Denver Center
05:10PM 41.6264 -101.6347 273° West 389 448 43,000 120 Climbing Denver Center
05:11PM 41.6306 -101.7958 272° West 390 449 43,000  Level Denver Center
05:12PM 41.6353 -101.9361 273° West 395 455 43,000  Level Denver Center
05:14PM 41.6403 -102.1000 272° West 396 456 43,000  Level Denver Center
05:15PM 41.6431 -102.2394 272° West 394 453 43,000  Level Denver Center
05:16PM 41.6428 -102.3808 270° West 393 452 43,000  Level Denver Center
05:17PM 41.6461 -102.5414 272° West 388 447 43,000  Level Denver Center
05:18PM 41.6494 -102.6981 272° West 387 445 43,000  Level Denver Center
05:19PM 41.6519 -102.8353 271° West 386 444 43,000  Level Denver Center
05:20PM 41.6542 -102.9961 271° West 386 444 43,000  Level Denver Center
05:21PM 41.6564 -103.1344 271° West 388 447 43,000  Level Denver Center
05:22PM 41.6586 -103.2722 271° West 388 447 43,000  Level Denver Center
05:23PM 41.6600 -103.4328 271° West 387 445 43,000  Level Denver Center
05:24PM 41.6619 -103.5692 271° West 385 443 43,000  Level Denver Center
05:25PM 41.6628 -103.7314 270° West 390 449 43,000  Level Denver Center
05:26PM 41.6644 -103.8706 271° West 391 450 43,000  Level Denver Center
05:27PM 41.6658 -104.0311 271° West 388 447 43,000  Level Denver Center
05:28PM 41.6669 -104.1714 271° West 392 451 43,000  Level Denver Center
05:29PM 41.6672 -104.3361 270° West 394 453 43,000  Level Denver Center
05:30PM 41.6672 -104.4756 270° West 393 452 43,000  Level Denver Center
05:31PM 41.6681 -104.6181 270° West 396 456 43,000  Level Denver Center
05:32PM 41.6675 -104.7831 270° West 396 456 43,000  Level Denver Center
05:33PM 41.6672 -104.9256 270° West 399 459 43,000  Level Denver Center
05:34PM 41.6669 -105.0914 270° West 399 459 43,000  Level Denver Center
05:35PM 41.6667 -105.2308 270° West 395 455 43,000  Level Denver Center
05:36PM 41.6661 -105.3942 270° West 393 452 43,000  Level Denver Center
05:37PM 41.6644 -105.5358 269° West 396 456 43,000  Level Denver Center
05:38PM 41.6636 -105.6994 270° West 395 455 43,000  Level Denver Center
05:39PM 41.6636 -105.8411 270° West 396 456 43,000  Level Denver Center
05:40PM 41.6614 -106.0078 269° West 399 459 43,000  Level Denver Center
05:41PM 41.6603 -106.1500 269° West 401 461 43,000  Level Denver Center
05:42PM 41.6583 -106.2925 269° West 400 460 43,000  Level Denver Center
05:43PM 41.6558 -106.4608 269° West 405 466 43,000  Level Denver Center
05:45PM 41.6533 -106.6089 269° West 402 463 43,000  Level Denver Center
05:46PM 41.6494 -106.7753 268° West 402 463 43,000  Level Denver Center
05:47PM 41.6492 -106.9175 270° West 400 460 43,000  Level Denver Center
05:48PM 41.6453 -107.0839 268° West 401 461 43,000  Level Denver Center
05:49PM 41.6422 -107.2264 268° West 402 463 43,000  Level Denver Center
05:50PM 41.6386 -107.3661 268° West 395 455 43,000  Level Denver Center
05:51PM 41.6356 -107.5294 269° West 395 455 43,000  Level Denver Center
05:52PM 41.6317 -107.6678 268° West 392 451 43,000  Level Denver Center
05:53PM 41.6275 -107.8275 268° West 387 445 43,000  Level Denver Center
05:54PM 41.6239 -107.9658 268° West 388 447 43,000  Level Denver Center
05:55PM 41.6192 -108.1244 268° West 384 442 43,000  Level Denver Center
05:56PM 41.6147 -108.2617 268° West 386 444 43,000  Level Denver Center
05:57PM 41.6103 -108.4236 268° West 391 450 43,000  Level Denver Center
05:58PM 41.6056 -108.5858 268° West 391 450 43,000  Level Salt Lake Center
05:59PM 41.5994 -108.7478 267° West 393 452 43,000  Level Salt Lake Center
06:00PM 41.5950 -108.8872 268° West 395 455 43,000  Level Salt Lake Center
06:01PM 41.5903 -109.0492 268° West 395 455 43,000  Level Salt Lake Center
06:02PM 41.6025 -109.1853 277° West 393 452 43,000  Level Salt Lake Center
06:03PM 41.6161 -109.3467 276° West 396 456 43,000  Level Salt Lake Center
06:04PM 41.6267 -109.4861 276° West 396 456 43,000 -540 Level Salt Lake Center
06:05PM 41.6389 -109.6497 276° West 399 459 41,900 -1,140 Descending Salt Lake Center
06:06PM 41.6503 -109.7908 276° West 399 459 40,700 -1,260 Descending Salt Lake Center
06:07PM 41.6608 -109.9456 275° West 378 435 39,400 -1,260 Descending Salt Lake Center
06:08PM 41.6706 -110.0819 275° West 384 442 38,200 -1,200 Descending Salt Lake Center
06:09PM 41.6833 -110.2472 276° West 399 459 36,900 -1,560 Descending Salt Lake Center
06:10PM 41.6922 -110.3842 275° West 390 449 35,000 -2,040 Descending Salt Lake Center
06:12PM 41.7031 -110.5422 275° West 383 441 32,800 -2,040 Descending Salt Lake Center
06:13PM 41.7092 -110.6769 274° West 381 438 30,900 -1,860 Descending Salt Lake Center
06:14PM 41.6922 -110.8122 261° West 383 441 29,100 -1,440 Descending Salt Lake Center
06:15PM 41.6761 -110.9639 262° West 388 447 28,000 -1,080 Descending Salt Lake Center
06:16PM 41.6606 -111.1136 262° West 406 467 26,900 -1,080 Descending Salt Lake Center
06:17PM 41.6458 -111.2569 262° West 395 455 25,800 -1,260 Descending Salt Lake Center
06:18PM 41.6275 -111.4261 262° West 387 445 24,300 -1,380 Descending Salt Lake Center
06:19PM 41.6125 -111.5656 262° West 383 441 23,000 -1,320 Descending Salt Lake Center
06:19PM 41.6067 -111.6006 257° West 381 438 22,600 -1,320 Descending Salt Lake Center
06:20PM 41.5972 -111.6956 262° West 374 430 21,700 -1,140 Descending Salt Lake Center
06:20PM 41.5978 -111.7008 278° West 373 429 21,800 -1,200 Climbing Salt Lake Center
06:21PM 41.5828 -111.8297 261° West 365 420 20,500 -1,200 Descending Salt Lake Center
06:21PM 41.5836 -111.8344 283° West 367 422 20,600 -1,200 Climbing Salt Lake Center
06:22PM 41.5700 -111.9633 262° West 370 426 19,400 -1,200 Descending Salt Lake Center
06:22PM 41.5681 -111.9681 241° Southwest 369 425 19,400 -720 Level Salt Lake Center
06:23PM 41.4942 -112.0494 220° Southwest 386 444 18,700 -720 Descending Salt Lake Center
06:23PM 41.4947 -112.0531 282° West 376 433 18,700 -1,920 Level Salt Lake Center
06:24PM 41.3733 -112.0822 190° South 372 428 16,400 -2,100 Descending Salt Lake Center
06:25PM 41.3006 -112.0956 188° South 368 423 15,100 -1,260 Descending Salt Lake Center
06:25PM 41.2747 -112.1031 192° South 363 418 15,100 -120 Level Salt Lake Center
06:26PM 41.2017 -112.1178 189° South 358 412 15,000 -420 Descending Salt Lake Center
06:26PM 41.1775 -112.1242 191° South 359 413 14,700 -1,560 Descending Salt Lake Center
06:27PM 41.1108 -112.1372 188° South 355 409 13,600 -1,560 Descending Salt Lake Center
06:27PM 41.0831 -112.1444 191° South 347 399 13,100 -1,740 Descending Salt Lake Center
06:28PM 41.0111 -112.1342 174° South 331 381 11,700 -1,800 Descending Salt Lake Center
06:28PM 40.9922 -112.1300 171° South 339 390 11,300 -600 Descending Salt Lake Center
06:29PM 40.9278 -112.1142 169° South 302 348 11,100 -240 Descending Salt Lake Center
06:29PM 40.8964 -112.1083 172° South 280 322 11,100  Level Salt Lake Center
06:30PM 40.8483 -112.1042 176° South 233 268 11,100  Level Salt Lake Center
06:30PM 40.8303 -112.1008 172° South 238 274 11,100 -420 Level Salt Lake Center
06:31PM 40.7800 -112.0961 176° South 247 284 10,700 -720 Descending Salt Lake Center
06:31PM 40.7636 -112.0908 166° South 243 280 10,400 -1,200 Descending Salt Lake Center
06:32PM 40.7125 -112.0819 172° South 239 275 9,500 -1,080 Descending Salt Lake Center
06:32PM 40.6989 -112.0750 159° South 237 273 9,300 -900 Descending Salt Lake Center
06:33PM 40.6472 -112.0672 173° South 227 261 8,600 -720 Descending Salt Lake Center
06:33PM 40.6367 -112.0611 156° South 228 262 8,600 -120 Level Salt Lake Center
06:34PM 40.5967 -112.0506 169° South 201 231 8,500 -240 Descending Salt Lake Center
06:34PM 40.5961 -112.0125 91° East 199 229 8,400 -900 Descending Salt Lake Center
06:35PM 40.6089 -111.9700 68° East 223 257 7,500 -1,200 Descending Salt Lake Center
06:35PM 40.6300 -111.9567 26° Northeast 225 259 7,200 -1,020 Descending Salt Lake Center
06:36PM 40.6700 -111.9636 352° North 219 252 6,400 -1,080 Descending Salt Lake Center
06:36PM 40.6886 -111.9633 North 209 241 6,100 -1,020 Descending Salt Lake Center
06:37PM 40.7225 -111.9683 354° North 157 181 5,400 -900 Descending Salt Lake Center
06:37PM 40.7331 -111.9683 360° North 162 186 5,200 -840 Descending Salt Lake Center
06:38PM 40.7581 -111.9733 351° North 121 139 4,600 -720 Descending Salt Lake Center
06:38PM 40.7678 -111.9717 North 128 147 4,500 -360 Descending Salt Lake Center
06:40PM 40.7833 -111.9667 North  Level FlightAware Approximate
06:47PM 40.7884 -111.9778 North  Level Estimated